sensor_id;sensor_type;location;lat;lon;timestamp;temperature;humidity
51863;DHT22;37900;52.996;6.278;2023-11-21T00:01:15;17.20;99.70
51863;DHT22;37900;52.996;6.278;2023-11-21T00:03:42;17.20;99.70
51863;DHT22;37900;52.996;6.278;2023-11-21T00:06:08;17.60;99.70
51863;DHT22;37900;52.996;6.278;2023-11-21T00:08:36;17.20;99.60
51863;DHT22;37900;52.996;6.278;2023-11-21T00:11:02;17.20;99.60
51863;DHT22;37900;52.996;6.278;2023-11-21T00:13:31;17.20;99.60
51863;DHT22;37900;52.996;6.278;2023-11-21T00:15:56;17.20;99.60
51863;DHT22;37900;52.996;6.278;2023-11-21T00:18:22;17.20;99.60
51863;DHT22;37900;52.996;6.278;2023-11-21T00:20:47;17.20;99.50
51863;DHT22;37900;52.996;6.278;2023-11-21T00:23:13;17.20;99.50
51863;DHT22;37900;52.996;6.278;2023-11-21T00:25:38;17.20;99.50
51863;DHT22;37900;52.996;6.278;2023-11-21T00:28:05;17.20;99.50
51863;DHT22;37900;52.996;6.278;2023-11-21T00:30:31;17.20;99.50
51863;DHT22;37900;52.996;6.278;2023-11-21T00:32:56;17.20;99.50
51863;DHT22;37900;52.996;6.278;2023-11-21T00:35:22;17.20;99.40
51863;DHT22;37900;52.996;6.278;2023-11-21T00:37:47;17.10;99.40
51863;DHT22;37900;52.996;6.278;2023-11-21T00:40:15;17.10;99.40
51863;DHT22;37900;52.996;6.278;2023-11-21T00:42:41;17.10;99.40
51863;DHT22;37900;52.996;6.278;2023-11-21T00:45:06;17.20;99.40
51863;DHT22;37900;52.996;6.278;2023-11-21T00:47:32;17.10;99.40
51863;DHT22;37900;52.996;6.278;2023-11-21T00:49:58;17.10;99.30
51863;DHT22;37900;52.996;6.278;2023-11-21T00:52:23;17.10;99.30
51863;DHT22;37900;52.996;6.278;2023-11-21T00:54:49;17.10;99.30
51863;DHT22;37900;52.996;6.278;2023-11-21T00:57:15;17.10;99.30
51863;DHT22;37900;52.996;6.278;2023-11-21T00:59:40;17.10;99.30
51863;DHT22;37900;52.996;6.278;2023-11-21T01:02:06;17.10;99.30
51863;DHT22;37900;52.996;6.278;2023-11-21T01:04:35;17.10;99.20
51863;DHT22;37900;52.996;6.278;2023-11-21T01:07:01;17.10;99.20
51863;DHT22;37900;52.996;6.278;2023-11-21T01:09:26;17.10;99.20
51863;DHT22;37900;52.996;6.278;2023-11-21T01:11:53;17.10;99.20
51863;DHT22;37900;52.996;6.278;2023-11-21T01:14:19;17.10;99.40
51863;DHT22;37900;52.996;6.278;2023-11-21T01:16:44;17.10;99.20
51863;DHT22;37900;52.996;6.278;2023-11-21T01:19:10;17.10;99.20
51863;DHT22;37900;52.996;6.278;2023-11-21T01:21:35;18.10;99.40
51863;DHT22;37900;52.996;6.278;2023-11-21T01:24:01;17.10;99.20
51863;DHT22;37900;52.996;6.278;2023-11-21T01:26:28;17.10;99.10
51863;DHT22;37900;52.996;6.278;2023-11-21T01:28:53;17.10;99.10
51863;DHT22;37900;52.996;6.278;2023-11-21T01:31:19;17.10;99.10
51863;DHT22;37900;52.996;6.278;2023-11-21T01:33:46;17.10;99.10
51863;DHT22;37900;52.996;6.278;2023-11-21T01:36:11;17.10;99.10
51863;DHT22;37900;52.996;6.278;2023-11-21T01:38:37;17.10;99.30
51863;DHT22;37900;52.996;6.278;2023-11-21T01:41:02;17.30;99.10
51863;DHT22;37900;52.996;6.278;2023-11-21T01:43:28;17.00;99.00
51863;DHT22;37900;52.996;6.278;2023-11-21T01:45:55;17.10;99.00
51863;DHT22;37900;52.996;6.278;2023-11-21T01:48:24;17.10;99.00
51863;DHT22;37900;52.996;6.278;2023-11-21T01:50:50;17.00;99.00
51863;DHT22;37900;52.996;6.278;2023-11-21T01:53:16;17.00;98.90
51863;DHT22;37900;52.996;6.278;2023-11-21T01:55:41;17.00;98.90
51863;DHT22;37900;52.996;6.278;2023-11-21T01:58:08;17.00;98.90
51863;DHT22;37900;52.996;6.278;2023-11-21T02:00:34;17.10;98.90
51863;DHT22;37900;52.996;6.278;2023-11-21T02:02:59;17.00;98.90
51863;DHT22;37900;52.996;6.278;2023-11-21T02:05:25;17.00;98.90
51863;DHT22;37900;52.996;6.278;2023-11-21T02:07:51;17.00;98.90
51863;DHT22;37900;52.996;6.278;2023-11-21T02:10:18;17.00;98.90
51863;DHT22;37900;52.996;6.278;2023-11-21T02:12:51;17.00;98.90
51863;DHT22;37900;52.996;6.278;2023-11-21T02:15:18;17.00;98.90
51863;DHT22;37900;52.996;6.278;2023-11-21T02:17:48;17.00;98.80
51863;DHT22;37900;52.996;6.278;2023-11-21T02:20:19;17.00;98.80
51863;DHT22;37900;52.996;6.278;2023-11-21T02:22:51;17.00;98.80
51863;DHT22;37900;52.996;6.278;2023-11-21T02:25:32;17.00;98.80
51863;DHT22;37900;52.996;6.278;2023-11-21T02:27:59;17.00;98.80
51863;DHT22;37900;52.996;6.278;2023-11-21T02:30:26;17.00;98.80
51863;DHT22;37900;52.996;6.278;2023-11-21T02:32:53;17.00;98.80
51863;DHT22;37900;52.996;6.278;2023-11-21T02:35:19;17.00;98.80
51863;DHT22;37900;52.996;6.278;2023-11-21T02:37:46;17.00;98.80
51863;DHT22;37900;52.996;6.278;2023-11-21T02:40:12;17.40;98.80
51863;DHT22;37900;52.996;6.278;2023-11-21T02:42:38;17.00;98.70
51863;DHT22;37900;52.996;6.278;2023-11-21T02:45:05;17.00;98.70
51863;DHT22;37900;52.996;6.278;2023-11-21T02:47:31;17.00;98.70
51863;DHT22;37900;52.996;6.278;2023-11-21T02:49:56;17.00;98.70
51863;DHT22;37900;52.996;6.278;2023-11-21T02:52:22;17.00;98.70
51863;DHT22;37900;52.996;6.278;2023-11-21T02:54:48;17.00;98.60
51863;DHT22;37900;52.996;6.278;2023-11-21T02:57:13;17.00;98.60
51863;DHT22;37900;52.996;6.278;2023-11-21T02:59:39;16.10;98.40
51863;DHT22;37900;52.996;6.278;2023-11-21T03:02:05;16.90;98.60
51863;DHT22;37900;52.996;6.278;2023-11-21T03:04:33;17.00;98.60
51863;DHT22;37900;52.996;6.278;2023-11-21T03:07:00;17.00;98.60
51863;DHT22;37900;52.996;6.278;2023-11-21T03:09:25;16.90;98.60
51863;DHT22;37900;52.996;6.278;2023-11-21T03:11:52;16.90;98.60
51863;DHT22;37900;52.996;6.278;2023-11-21T03:14:18;17.00;98.60
51863;DHT22;37900;52.996;6.278;2023-11-21T03:16:43;16.90;98.60
51863;DHT22;37900;52.996;6.278;2023-11-21T03:19:10;16.90;98.50
51863;DHT22;37900;52.996;6.278;2023-11-21T03:21:36;16.90;98.50
51863;DHT22;37900;52.996;6.278;2023-11-21T03:24:02;16.90;98.50
51863;DHT22;37900;52.996;6.278;2023-11-21T03:26:28;16.90;98.50
51863;DHT22;37900;52.996;6.278;2023-11-21T03:28:55;16.90;98.50
51863;DHT22;37900;52.996;6.278;2023-11-21T03:31:20;16.90;98.50
51863;DHT22;37900;52.996;6.278;2023-11-21T03:33:46;16.90;98.50
51863;DHT22;37900;52.996;6.278;2023-11-21T03:36:12;16.90;98.50
51863;DHT22;37900;52.996;6.278;2023-11-21T03:38:40;16.90;98.50
51863;DHT22;37900;52.996;6.278;2023-11-21T03:41:06;16.90;98.40
51863;DHT22;37900;52.996;6.278;2023-11-21T03:43:31;16.90;98.40
51863;DHT22;37900;52.996;6.278;2023-11-21T03:45:57;16.90;98.40
51863;DHT22;37900;52.996;6.278;2023-11-21T03:48:23;16.90;98.40
51863;DHT22;37900;52.996;6.278;2023-11-21T03:50:48;16.90;98.40
51863;DHT22;37900;52.996;6.278;2023-11-21T03:53:14;16.90;98.40
51863;DHT22;37900;52.996;6.278;2023-11-21T03:55:39;16.90;98.40
51863;DHT22;37900;52.996;6.278;2023-11-21T03:58:05;16.90;98.40
51863;DHT22;37900;52.996;6.278;2023-11-21T04:00:30;16.90;98.60
51863;DHT22;37900;52.996;6.278;2023-11-21T04:02:56;16.90;98.40
51863;DHT22;37900;52.996;6.278;2023-11-21T04:05:22;16.90;98.40
51863;DHT22;37900;52.996;6.278;2023-11-21T04:07:51;16.90;98.40
51863;DHT22;37900;52.996;6.278;2023-11-21T04:10:17;16.90;98.40
51863;DHT22;37900;52.996;6.278;2023-11-21T04:12:43;16.90;98.30
51863;DHT22;37900;52.996;6.278;2023-11-21T04:15:09;16.90;98.30
51863;DHT22;37900;52.996;6.278;2023-11-21T04:17:35;16.90;98.30
51863;DHT22;37900;52.996;6.278;2023-11-21T04:20:02;16.90;98.30
51863;DHT22;37900;52.996;6.278;2023-11-21T04:22:28;16.80;98.30
51863;DHT22;37900;52.996;6.278;2023-11-21T04:24:54;16.90;98.30
51863;DHT22;37900;52.996;6.278;2023-11-21T04:27:21;16.90;98.30
51863;DHT22;37900;52.996;6.278;2023-11-21T04:29:46;16.90;98.30
51863;DHT22;37900;52.996;6.278;2023-11-21T04:32:12;16.90;98.30
51863;DHT22;37900;52.996;6.278;2023-11-21T04:34:38;16.90;98.30
51863;DHT22;37900;52.996;6.278;2023-11-21T04:37:03;16.80;98.20
51863;DHT22;37900;52.996;6.278;2023-11-21T04:39:31;16.80;98.20
51863;DHT22;37900;52.996;6.278;2023-11-21T04:41:57;16.90;98.20
51863;DHT22;37900;52.996;6.278;2023-11-21T04:44:22;16.80;98.20
51863;DHT22;37900;52.996;6.278;2023-11-21T04:46:48;16.80;98.20
51863;DHT22;37900;52.996;6.278;2023-11-21T04:49:14;16.80;98.20
51863;DHT22;37900;52.996;6.278;2023-11-21T04:51:39;16.80;98.20
51863;DHT22;37900;52.996;6.278;2023-11-21T04:54:05;16.80;98.20
51863;DHT22;37900;52.996;6.278;2023-11-21T04:56:31;16.80;98.20
51863;DHT22;37900;52.996;6.278;2023-11-21T04:58:56;16.80;98.10
51863;DHT22;37900;52.996;6.278;2023-11-21T05:01:22;16.80;98.10
51863;DHT22;37900;52.996;6.278;2023-11-21T05:03:48;16.80;98.10
51863;DHT22;37900;52.996;6.278;2023-11-21T05:06:14;16.80;98.10
51863;DHT22;37900;52.996;6.278;2023-11-21T05:08:40;16.80;98.10
51863;DHT22;37900;52.996;6.278;2023-11-21T05:11:05;16.80;98.10
51863;DHT22;37900;52.996;6.278;2023-11-21T05:13:35;16.80;98.10
51863;DHT22;37900;52.996;6.278;2023-11-21T05:16:01;16.80;98.10
51863;DHT22;37900;52.996;6.278;2023-11-21T05:18:29;16.80;98.10
51863;DHT22;37900;52.996;6.278;2023-11-21T05:20:55;16.80;98.10
51863;DHT22;37900;52.996;6.278;2023-11-21T05:23:21;16.80;98.10
51863;DHT22;37900;52.996;6.278;2023-11-21T05:25:46;16.80;98.10
51863;DHT22;37900;52.996;6.278;2023-11-21T05:28:12;16.80;98.10
51863;DHT22;37900;52.996;6.278;2023-11-21T05:30:38;16.80;98.10
51863;DHT22;37900;52.996;6.278;2023-11-21T05:33:06;16.80;98.10
51863;DHT22;37900;52.996;6.278;2023-11-21T05:35:32;16.80;98.10
51863;DHT22;37900;52.996;6.278;2023-11-21T05:37:57;16.80;98.10
51863;DHT22;37900;52.996;6.278;2023-11-21T05:40:23;16.80;98.00
51863;DHT22;37900;52.996;6.278;2023-11-21T05:42:49;16.80;98.00
51863;DHT22;37900;52.996;6.278;2023-11-21T05:45:14;16.80;98.00
51863;DHT22;37900;52.996;6.278;2023-11-21T05:47:41;16.80;98.00
51863;DHT22;37900;52.996;6.278;2023-11-21T05:50:08;16.70;98.00
51863;DHT22;37900;52.996;6.278;2023-11-21T05:52:38;16.70;98.00
51863;DHT22;37900;52.996;6.278;2023-11-21T05:55:05;16.70;98.00
51863;DHT22;37900;52.996;6.278;2023-11-21T05:57:36;16.70;97.90
51863;DHT22;37900;52.996;6.278;2023-11-21T06:00:05;16.70;98.00
51863;DHT22;37900;52.996;6.278;2023-11-21T06:02:43;16.70;98.00
51863;DHT22;37900;52.996;6.278;2023-11-21T06:05:09;16.80;98.00
51863;DHT22;37900;52.996;6.278;2023-11-21T06:07:35;16.70;97.90
51863;DHT22;37900;52.996;6.278;2023-11-21T06:10:02;16.70;97.90
51863;DHT22;37900;52.996;6.278;2023-11-21T06:12:31;16.70;97.90
51863;DHT22;37900;52.996;6.278;2023-11-21T06:15:03;16.70;97.90
51863;DHT22;37900;52.996;6.278;2023-11-21T06:17:34;16.70;97.90
51863;DHT22;37900;52.996;6.278;2023-11-21T06:20:02;16.70;97.90
51863;DHT22;37900;52.996;6.278;2023-11-21T06:22:29;16.70;97.90
51863;DHT22;37900;52.996;6.278;2023-11-21T06:24:55;16.70;97.90
51863;DHT22;37900;52.996;6.278;2023-11-21T06:27:21;16.70;97.90
51863;DHT22;37900;52.996;6.278;2023-11-21T06:29:47;16.70;97.90
51863;DHT22;37900;52.996;6.278;2023-11-21T06:32:12;16.70;97.90
51863;DHT22;37900;52.996;6.278;2023-11-21T06:34:38;16.70;97.90
51863;DHT22;37900;52.996;6.278;2023-11-21T06:37:04;16.70;97.90
51863;DHT22;37900;52.996;6.278;2023-11-21T06:39:29;16.70;97.90
51863;DHT22;37900;52.996;6.278;2023-11-21T06:41:55;16.70;97.90
51863;DHT22;37900;52.996;6.278;2023-11-21T06:44:21;16.70;97.80
51863;DHT22;37900;52.996;6.278;2023-11-21T06:46:47;16.70;97.90
51863;DHT22;37900;52.996;6.278;2023-11-21T06:49:13;16.70;97.90
51863;DHT22;37900;52.996;6.278;2023-11-21T06:51:39;16.70;97.80
51863;DHT22;37900;52.996;6.278;2023-11-21T06:54:05;16.70;97.90
51863;DHT22;37900;52.996;6.278;2023-11-21T06:56:31;16.70;97.90
51863;DHT22;37900;52.996;6.278;2023-11-21T06:58:58;16.70;98.10
51863;DHT22;37900;52.996;6.278;2023-11-21T07:01:23;16.70;98.20
51863;DHT22;37900;52.996;6.278;2023-11-21T07:03:50;16.70;98.30
51863;DHT22;37900;52.996;6.278;2023-11-21T07:06:15;16.70;98.40
51863;DHT22;37900;52.996;6.278;2023-11-21T07:08:42;16.80;98.50
51863;DHT22;37900;52.996;6.278;2023-11-21T07:11:08;16.80;98.50
51863;DHT22;37900;52.996;6.278;2023-11-21T07:13:33;16.80;98.60
51863;DHT22;37900;52.996;6.278;2023-11-21T07:15:59;16.80;98.50
51863;DHT22;37900;52.996;6.278;2023-11-21T07:18:24;16.70;98.50
51863;DHT22;37900;52.996;6.278;2023-11-21T07:20:50;16.80;98.50
51863;DHT22;37900;52.996;6.278;2023-11-21T07:23:15;16.80;98.60
51863;DHT22;37900;52.996;6.278;2023-11-21T07:25:41;16.70;98.60
51863;DHT22;37900;52.996;6.278;2023-11-21T07:28:08;16.80;98.60
51863;DHT22;37900;52.996;6.278;2023-11-21T07:30:34;16.80;98.60
51863;DHT22;37900;52.996;6.278;2023-11-21T07:32:59;16.80;98.60
51863;DHT22;37900;52.996;6.278;2023-11-21T07:35:25;16.80;98.70
51863;DHT22;37900;52.996;6.278;2023-11-21T07:37:51;16.80;98.70
51863;DHT22;37900;52.996;6.278;2023-11-21T07:40:17;16.80;98.70
51863;DHT22;37900;52.996;6.278;2023-11-21T07:42:43;16.70;98.70
51863;DHT22;37900;52.996;6.278;2023-11-21T07:45:08;16.80;98.70
51863;DHT22;37900;52.996;6.278;2023-11-21T07:47:34;16.70;98.70
51863;DHT22;37900;52.996;6.278;2023-11-21T07:50:00;16.80;98.70
51863;DHT22;37900;52.996;6.278;2023-11-21T07:52:28;16.70;98.70
51863;DHT22;37900;52.996;6.278;2023-11-21T07:54:53;16.70;98.70
51863;DHT22;37900;52.996;6.278;2023-11-21T07:57:19;16.70;98.70
51863;DHT22;37900;52.996;6.278;2023-11-21T07:59:45;16.70;98.70
51863;DHT22;37900;52.996;6.278;2023-11-21T08:02:10;16.70;98.70
51863;DHT22;37900;52.996;6.278;2023-11-21T08:04:36;16.70;98.70
51863;DHT22;37900;52.996;6.278;2023-11-21T08:07:01;16.70;98.70
51863;DHT22;37900;52.996;6.278;2023-11-21T08:09:29;16.70;98.70
51863;DHT22;37900;52.996;6.278;2023-11-21T08:11:55;16.70;98.70
51863;DHT22;37900;52.996;6.278;2023-11-21T08:14:20;16.70;98.70
51863;DHT22;37900;52.996;6.278;2023-11-21T08:16:46;16.70;98.60
51863;DHT22;37900;52.996;6.278;2023-11-21T08:19:12;16.70;98.60
51863;DHT22;37900;52.996;6.278;2023-11-21T08:21:38;16.60;98.60
51863;DHT22;37900;52.996;6.278;2023-11-21T08:24:05;16.70;98.60
51863;DHT22;37900;52.996;6.278;2023-11-21T08:26:30;16.70;98.60
51863;DHT22;37900;52.996;6.278;2023-11-21T08:28:56;16.60;98.60
51863;DHT22;37900;52.996;6.278;2023-11-21T08:31:25;16.60;98.50
51863;DHT22;37900;52.996;6.278;2023-11-21T08:33:51;16.60;98.50
51863;DHT22;37900;52.996;6.278;2023-11-21T08:36:16;16.60;98.50
51863;DHT22;37900;52.996;6.278;2023-11-21T08:38:42;16.60;98.50
51863;DHT22;37900;52.996;6.278;2023-11-21T08:41:09;16.60;98.50
51863;DHT22;37900;52.996;6.278;2023-11-21T08:43:36;16.60;98.50
51863;DHT22;37900;52.996;6.278;2023-11-21T08:46:05;16.60;98.40
51863;DHT22;37900;52.996;6.278;2023-11-21T08:48:31;16.60;98.40
51863;DHT22;37900;52.996;6.278;2023-11-21T08:50:57;16.60;98.40
51863;DHT22;37900;52.996;6.278;2023-11-21T08:53:22;16.60;98.40
51863;DHT22;37900;52.996;6.278;2023-11-21T08:55:48;16.60;98.40
51863;DHT22;37900;52.996;6.278;2023-11-21T08:58:15;16.60;98.40
51863;DHT22;37900;52.996;6.278;2023-11-21T09:00:41;16.60;98.40
51863;DHT22;37900;52.996;6.278;2023-11-21T09:03:06;16.60;98.40
51863;DHT22;37900;52.996;6.278;2023-11-21T09:05:34;16.60;98.30
51863;DHT22;37900;52.996;6.278;2023-11-21T09:07:59;16.60;98.30
51863;DHT22;37900;52.996;6.278;2023-11-21T09:10:25;16.60;98.30
51863;DHT22;37900;52.996;6.278;2023-11-21T09:12:51;16.60;98.30
51863;DHT22;37900;52.996;6.278;2023-11-21T09:15:17;16.60;98.30
51863;DHT22;37900;52.996;6.278;2023-11-21T09:17:42;16.50;98.30
51863;DHT22;37900;52.996;6.278;2023-11-21T09:20:10;16.60;98.30
51863;DHT22;37900;52.996;6.278;2023-11-21T09:22:35;16.60;98.30
51863;DHT22;37900;52.996;6.278;2023-11-21T09:25:01;16.50;98.20
51863;DHT22;37900;52.996;6.278;2023-11-21T09:27:33;16.90;98.30
51863;DHT22;37900;52.996;6.278;2023-11-21T09:29:59;16.50;98.20
51863;DHT22;37900;52.996;6.278;2023-11-21T09:32:24;16.50;98.20
51863;DHT22;37900;52.996;6.278;2023-11-21T09:34:50;16.50;98.20
51863;DHT22;37900;52.996;6.278;2023-11-21T09:37:16;16.50;98.20
51863;DHT22;37900;52.996;6.278;2023-11-21T09:39:42;16.50;98.10
51863;DHT22;37900;52.996;6.278;2023-11-21T09:42:09;16.50;98.10
51863;DHT22;37900;52.996;6.278;2023-11-21T09:44:37;16.50;98.10
51863;DHT22;37900;52.996;6.278;2023-11-21T09:47:05;16.50;98.10
51863;DHT22;37900;52.996;6.278;2023-11-21T09:49:36;16.50;98.10
51863;DHT22;37900;52.996;6.278;2023-11-21T09:52:02;16.50;98.10
51863;DHT22;37900;52.996;6.278;2023-11-21T09:54:29;16.50;98.10
51863;DHT22;37900;52.996;6.278;2023-11-21T09:56:57;16.50;98.10
51863;DHT22;37900;52.996;6.278;2023-11-21T09:59:23;16.50;98.10
51863;DHT22;37900;52.996;6.278;2023-11-21T10:01:49;16.50;98.10
51863;DHT22;37900;52.996;6.278;2023-11-21T10:04:15;16.50;98.00
51863;DHT22;37900;52.996;6.278;2023-11-21T10:06:42;16.50;98.00
51863;DHT22;37900;52.996;6.278;2023-11-21T10:09:12;16.50;98.00
51863;DHT22;37900;52.996;6.278;2023-11-21T10:11:39;16.50;98.00
51863;DHT22;37900;52.996;6.278;2023-11-21T10:14:06;16.50;98.00
51863;DHT22;37900;52.996;6.278;2023-11-21T10:16:33;16.50;98.00
51863;DHT22;37900;52.996;6.278;2023-11-21T10:18:59;16.50;98.00
51863;DHT22;37900;52.996;6.278;2023-11-21T10:21:25;16.50;97.90
51863;DHT22;37900;52.996;6.278;2023-11-21T10:23:51;16.50;97.90
51863;DHT22;37900;52.996;6.278;2023-11-21T10:26:18;16.50;97.90
51863;DHT22;37900;52.996;6.278;2023-11-21T10:29:04;16.50;97.90
51863;DHT22;37900;52.996;6.278;2023-11-21T10:31:30;16.40;97.90
51863;DHT22;37900;52.996;6.278;2023-11-21T10:34:14;16.50;97.90
51863;DHT22;37900;52.996;6.278;2023-11-21T10:36:40;16.40;97.80
51863;DHT22;37900;52.996;6.278;2023-11-21T10:39:06;16.50;97.90
51863;DHT22;37900;52.996;6.278;2023-11-21T10:41:32;16.40;97.80
51863;DHT22;37900;52.996;6.278;2023-11-21T10:43:58;16.40;97.80
51863;DHT22;37900;52.996;6.278;2023-11-21T10:46:23;16.40;97.80
51863;DHT22;37900;52.996;6.278;2023-11-21T10:48:54;16.40;97.80
51863;DHT22;37900;52.996;6.278;2023-11-21T10:51:22;16.40;97.80
51863;DHT22;37900;52.996;6.278;2023-11-21T10:53:51;16.40;97.80
51863;DHT22;37900;52.996;6.278;2023-11-21T10:56:16;16.40;97.80
51863;DHT22;37900;52.996;6.278;2023-11-21T10:58:47;16.40;97.80
51863;DHT22;37900;52.996;6.278;2023-11-21T11:01:13;16.40;97.80
51863;DHT22;37900;52.996;6.278;2023-11-21T11:03:40;16.40;97.80
51863;DHT22;37900;52.996;6.278;2023-11-21T11:06:06;16.40;97.80
51863;DHT22;37900;52.996;6.278;2023-11-21T11:08:37;16.40;97.70
51863;DHT22;37900;52.996;6.278;2023-11-21T11:11:04;16.40;97.70
51863;DHT22;37900;52.996;6.278;2023-11-21T11:13:30;16.40;97.70
51863;DHT22;37900;52.996;6.278;2023-11-21T11:15:59;16.40;97.70
51863;DHT22;37900;52.996;6.278;2023-11-21T11:18:30;16.40;97.70
51863;DHT22;37900;52.996;6.278;2023-11-21T11:20:58;16.40;97.70
51863;DHT22;37900;52.996;6.278;2023-11-21T11:26:06;16.40;97.80
51863;DHT22;37900;52.996;6.278;2023-11-21T11:31:13;16.40;98.00
51863;DHT22;37900;52.996;6.278;2023-11-21T11:33:45;16.40;98.10
51863;DHT22;37900;52.996;6.278;2023-11-21T11:36:31;16.40;98.20
51863;DHT22;37900;52.996;6.278;2023-11-21T11:38:58;16.40;98.20
51863;DHT22;37900;52.996;6.278;2023-11-21T11:41:26;16.40;98.30
51863;DHT22;37900;52.996;6.278;2023-11-21T11:43:53;16.50;98.40
51863;DHT22;37900;52.996;6.278;2023-11-21T11:46:19;16.50;98.40
51863;DHT22;37900;52.996;6.278;2023-11-21T11:48:47;16.50;98.40
51863;DHT22;37900;52.996;6.278;2023-11-21T11:51:14;16.50;98.40
51863;DHT22;37900;52.996;6.278;2023-11-21T11:53:43;16.50;98.50
51863;DHT22;37900;52.996;6.278;2023-11-21T11:58:47;16.50;98.50
51863;DHT22;37900;52.996;6.278;2023-11-21T12:01:12;16.50;98.60
51863;DHT22;37900;52.996;6.278;2023-11-21T12:03:39;16.50;98.60
51863;DHT22;37900;52.996;6.278;2023-11-21T12:06:05;16.50;98.60
51863;DHT22;37900;52.996;6.278;2023-11-21T12:08:32;16.50;98.70
51863;DHT22;37900;52.996;6.278;2023-11-21T12:10:58;16.60;98.70
51863;DHT22;37900;52.996;6.278;2023-11-21T12:13:23;16.60;98.80
51863;DHT22;37900;52.996;6.278;2023-11-21T12:15:49;16.60;98.80
51863;DHT22;37900;52.996;6.278;2023-11-21T12:18:14;16.60;98.80
51863;DHT22;37900;52.996;6.278;2023-11-21T12:20:41;16.60;99.10
51863;DHT22;37900;52.996;6.278;2023-11-21T12:23:08;16.60;98.80
51863;DHT22;37900;52.996;6.278;2023-11-21T12:25:34;16.50;98.80
51863;DHT22;37900;52.996;6.278;2023-11-21T12:28:02;16.60;98.80
51863;DHT22;37900;52.996;6.278;2023-11-21T12:30:31;16.50;98.80
51863;DHT22;37900;52.996;6.278;2023-11-21T12:32:58;16.60;98.80
51863;DHT22;37900;52.996;6.278;2023-11-21T12:35:24;16.50;98.80
51863;DHT22;37900;52.996;6.278;2023-11-21T12:37:51;16.50;98.80
51863;DHT22;37900;52.996;6.278;2023-11-21T12:40:17;16.50;98.80
51863;DHT22;37900;52.996;6.278;2023-11-21T12:42:47;16.50;98.80
51863;DHT22;37900;52.996;6.278;2023-11-21T12:47:43;16.50;98.80
51863;DHT22;37900;52.996;6.278;2023-11-21T12:50:09;16.50;98.80
51863;DHT22;37900;52.996;6.278;2023-11-21T12:52:41;16.50;98.80
51863;DHT22;37900;52.996;6.278;2023-11-21T12:55:08;16.50;98.80
51863;DHT22;37900;52.996;6.278;2023-11-21T12:57:35;16.50;98.90
51863;DHT22;37900;52.996;6.278;2023-11-21T13:00:03;16.50;98.90
51863;DHT22;37900;52.996;6.278;2023-11-21T13:02:36;16.50;98.90
51863;DHT22;37900;52.996;6.278;2023-11-21T13:05:03;16.50;98.90
51863;DHT22;37900;52.996;6.278;2023-11-21T13:07:40;16.50;98.90
51863;DHT22;37900;52.996;6.278;2023-11-21T13:10:16;16.50;98.80
51863;DHT22;37900;52.996;6.278;2023-11-21T13:12:45;16.50;98.90
51863;DHT22;37900;52.996;6.278;2023-11-21T13:15:14;16.50;98.90
51863;DHT22;37900;52.996;6.278;2023-11-21T13:17:42;16.50;98.90
51863;DHT22;37900;52.996;6.278;2023-11-21T13:20:10;16.50;99.00
51863;DHT22;37900;52.996;6.278;2023-11-21T13:25:19;16.50;99.00
51863;DHT22;37900;52.996;6.278;2023-11-21T13:27:45;16.50;99.00
51863;DHT22;37900;52.996;6.278;2023-11-21T13:30:12;16.50;99.00
51863;DHT22;37900;52.996;6.278;2023-11-21T13:32:44;16.50;99.00
51863;DHT22;37900;52.996;6.278;2023-11-21T13:35:11;16.50;99.00
51863;DHT22;37900;52.996;6.278;2023-11-21T13:37:51;16.50;99.00
51863;DHT22;37900;52.996;6.278;2023-11-21T13:40:21;16.50;99.00
51863;DHT22;37900;52.996;6.278;2023-11-21T13:42:51;16.50;99.00
51863;DHT22;37900;52.996;6.278;2023-11-21T13:45:20;16.50;98.90
51863;DHT22;37900;52.996;6.278;2023-11-21T13:47:48;16.50;99.00
51863;DHT22;37900;52.996;6.278;2023-11-21T13:50:16;16.50;98.90
51863;DHT22;37900;52.996;6.278;2023-11-21T13:52:48;16.50;98.90
51863;DHT22;37900;52.996;6.278;2023-11-21T13:55:15;16.50;98.90
51863;DHT22;37900;52.996;6.278;2023-11-21T13:57:44;16.40;98.90
51863;DHT22;37900;52.996;6.278;2023-11-21T14:00:12;16.50;98.90
51863;DHT22;37900;52.996;6.278;2023-11-21T14:02:58;16.50;98.90
51863;DHT22;37900;52.996;6.278;2023-11-21T14:05:26;16.50;98.90
51863;DHT22;37900;52.996;6.278;2023-11-21T14:07:57;16.50;98.90
51863;DHT22;37900;52.996;6.278;2023-11-21T14:10:29;16.50;98.90
51863;DHT22;37900;52.996;6.278;2023-11-21T14:13:05;16.50;98.90
51863;DHT22;37900;52.996;6.278;2023-11-21T14:15:31;16.50;98.80
51863;DHT22;37900;52.996;6.278;2023-11-21T14:17:58;16.50;98.80
51863;DHT22;37900;52.996;6.278;2023-11-21T14:20:25;16.30;98.80
51863;DHT22;37900;52.996;6.278;2023-11-21T14:22:51;16.50;98.80
51863;DHT22;37900;52.996;6.278;2023-11-21T14:25:17;16.40;98.80
51863;DHT22;37900;52.996;6.278;2023-11-21T14:27:43;16.50;98.80
51863;DHT22;37900;52.996;6.278;2023-11-21T14:30:08;16.40;98.70
51863;DHT22;37900;52.996;6.278;2023-11-21T14:32:38;16.40;98.70
51863;DHT22;37900;52.996;6.278;2023-11-21T14:35:05;16.40;98.70
51863;DHT22;37900;52.996;6.278;2023-11-21T14:37:30;16.40;98.70
51863;DHT22;37900;52.996;6.278;2023-11-21T14:39:56;16.40;98.70
51863;DHT22;37900;52.996;6.278;2023-11-21T14:42:22;16.40;98.70
51863;DHT22;37900;52.996;6.278;2023-11-21T14:44:51;16.40;98.70
51863;DHT22;37900;52.996;6.278;2023-11-21T14:47:17;16.40;98.70
51863;DHT22;37900;52.996;6.278;2023-11-21T14:49:50;16.40;98.60
51863;DHT22;37900;52.996;6.278;2023-11-21T14:52:19;16.40;98.60
51863;DHT22;37900;52.996;6.278;2023-11-21T14:55:00;16.40;98.60
51863;DHT22;37900;52.996;6.278;2023-11-21T14:57:46;16.30;98.60
51863;DHT22;37900;52.996;6.278;2023-11-21T15:00:16;16.40;98.60
51863;DHT22;37900;52.996;6.278;2023-11-21T15:03:02;16.40;98.60
51863;DHT22;37900;52.996;6.278;2023-11-21T15:05:27;16.40;98.60
51863;DHT22;37900;52.996;6.278;2023-11-21T15:07:54;16.40;98.60
51863;DHT22;37900;52.996;6.278;2023-11-21T15:10:22;16.40;98.70
51863;DHT22;37900;52.996;6.278;2023-11-21T15:12:56;16.40;98.70
51863;DHT22;37900;52.996;6.278;2023-11-21T15:15:23;16.40;98.70
51863;DHT22;37900;52.996;6.278;2023-11-21T15:17:48;16.40;98.70
51863;DHT22;37900;52.996;6.278;2023-11-21T15:20:14;16.40;98.80
51863;DHT22;37900;52.996;6.278;2023-11-21T15:22:46;16.40;98.70
51863;DHT22;37900;52.996;6.278;2023-11-21T15:25:12;16.40;98.80
51863;DHT22;37900;52.996;6.278;2023-11-21T15:27:38;16.40;98.80
51863;DHT22;37900;52.996;6.278;2023-11-21T15:30:05;16.40;98.70
51863;DHT22;37900;52.996;6.278;2023-11-21T15:32:30;16.40;98.70
51863;DHT22;37900;52.996;6.278;2023-11-21T15:34:56;16.40;98.70
51863;DHT22;37900;52.996;6.278;2023-11-21T15:37:22;16.40;98.60
51863;DHT22;37900;52.996;6.278;2023-11-21T15:39:47;16.40;98.60
51863;DHT22;37900;52.996;6.278;2023-11-21T15:42:13;16.40;98.60